Ovar, Portugal

1:27 AM WEST on August 31, 2014 (GMT +0100)
Ovar - Sao Miguel | Change Station
CLOSE
Current Station
Personal Weather Station
Location: 3880 Ovar, PORTUGAL
Elevation: 60 ft
Nearby Weather Stations

Elev 60 ft 40.86 °N, 8.62 °W | Updated 2 seconds ago

Clear
Clear
63.9 °F
Feels Like 63.9 °F
N
0.9
Wind Variable Wind from ENE
Gusts 2.9 mph

Today
High -- | Low -- °F
--% Chance of Precip.
Yesterday
High -- | Low -- °F
Precip. -- in
7:00 AM 8:08 PM
Waxing Crescent, 26% visible
Pressure 30.01 in
Visibility 3.7 miles
Clouds
Dew Point 61 °F
Humidity 92%
Rainfall 0.00 in
Snow Depth Not available.
UV Not available.
Pollen Not available.
Air Quality Not available.
Flu Activity Not available.
METAR LPPR 310000Z 00000KT 6000 NSC 16/16 Q1016

More Conditions Fewer Conditions

Pressure 30.01 in
Visibility 3.7 miles
Clouds
Dew Point 61 °F
Humidity 92%
Rainfall 0.00 in
Snow Depth Not available.
UV Not available.
Pollen Not available.
Air Quality Not available.
Flu Activity Not available.
METAR LPPR 310000Z 00000KT 6000 NSC 16/16 Q1016

More Conditions Fewer Conditions

10-Day Weather Forecast

Almanac

Astronomy

Aug. 31, 2014 Rise Set
Actual Time 7:00 AM WEST 8:08 PM WEST
Civil Twilight 6:31 AM WEST 8:37 PM WEST
Nautical Twilight 5:58 AM WEST 9:10 PM WEST
Astronomical Twilight 5:22 AM WEST 9:46 PM WEST
Moon 12:35 PM WEST 11:11 PM WEST
Length of Visible Light 14h 05m
Length of Day
13h 08m
Tomorrow will be 2m 37s shorter.
Waxing Crescent, 26% of the Moon is Illuminated
Aug 30
Waxing Crescent
Sep 2
First Quarter
Sep 8
Full
Sep 15
Last Quarter
Sep 24
New

Yesterday's Extremes

Country Highs Country Lows

Community

WunderPhotos

Upload Photos

1,748,704 photos uploaded!

Nearby

Snow Depth

Not available.

Earthquake Activity

City Distance Mag. Time & Date
No recent earthquake activity has been reported nearby.
Minimum magnitude displayed is 2.5.

Coastal Water Temperatures

Place Temperature
No Stations Reporting

Nearby Weather Stations